Terminal Aerodrome Forecast
Issued by NWS

Home | Current Version | Previous Version | Text Only | Print | Product List | Glossary On
Versions: 1 2 3 4 5 6 7 8 9 10 11 12 13 14 15 16 17 18 19 20 21 22 23 24 25 26 27 28 29 30
393
FTUS43 KLOT 261012 AAB
TAFORD
TAF AMD
KORD 261012Z 2610/2712 07006KT 2SM -RADZ BR OVC003
      TEMPO 2610/2613 1 1/2SM -RADZ BR
     FM261500 12008KT 3SM -RADZ BR OVC006
     FM261900 20007KT 5SM BR VCSH BKN015 OVC024
     FM270400 25005KT 5SM BR OVC009=

USA.gov is the U.S. government's official web portal to all federal, state and local government web resources and services.